createdAt,value
2022-09-06T00:01:24.560Z,6.18
2022-09-06T00:04:15.090Z,5.65
2022-09-06T00:07:00.964Z,6.18
2022-09-06T00:09:46.507Z,6.13
2022-09-06T00:12:32.193Z,6.40
2022-09-06T00:15:17.824Z,6.25
2022-09-06T00:18:05.694Z,6.30
2022-09-06T00:20:50.980Z,6.03
2022-09-06T00:23:36.864Z,6.15
2022-09-06T00:26:23.601Z,5.97
2022-09-06T00:29:09.313Z,6.20
2022-09-06T00:31:55.220Z,5.85
2022-09-06T00:34:41.053Z,6.50
2022-09-06T00:37:26.548Z,5.97
2022-09-06T00:40:12.589Z,5.45
2022-09-06T00:42:58.268Z,6.10
2022-09-06T00:45:43.894Z,6.10
2022-09-06T00:48:29.269Z,6.25
2022-09-06T00:51:16.707Z,6.03
2022-09-06T00:54:07.250Z,6.60
2022-09-06T00:56:52.931Z,6.60
2022-09-06T00:59:40.246Z,6.70
2022-09-06T01:02:26.292Z,5.93
2022-09-06T01:05:12.432Z,6.38
2022-09-06T01:08:03.553Z,5.93
2022-09-06T01:11:25.381Z,6.20
2022-09-06T01:14:53.579Z,6.75
2022-09-06T01:18:00.671Z,6.78
2022-09-06T01:21:10.036Z,6.32
2022-09-06T01:24:30.852Z,6.90
2022-09-06T01:27:40.700Z,7.00
2022-09-06T01:30:26.258Z,6.70
2022-09-06T01:33:32.343Z,7.35
2022-09-06T01:36:24.045Z,7.07
2022-09-06T01:39:21.868Z,6.90
2022-09-06T01:42:13.919Z,7.38
2022-09-06T01:45:02.473Z,7.50
2022-09-06T01:48:08.799Z,7.22
2022-09-06T01:50:58.968Z,7.15
2022-09-06T01:53:59.133Z,7.10
2022-09-06T01:56:56.678Z,7.20
2022-09-06T01:59:59.732Z,6.90
2022-09-06T02:03:07.420Z,7.63
2022-09-06T02:05:59.209Z,7.97
2022-09-06T02:08:53.217Z,7.88
2022-09-06T02:12:00.184Z,7.82
2022-09-06T02:14:57.753Z,8.18
2022-09-06T02:17:49.217Z,7.57
2022-09-06T02:20:41.525Z,7.95
2022-09-06T02:23:31.076Z,8.18
2022-09-06T02:26:25.017Z,7.93
2022-09-06T02:29:10.885Z,8.00
2022-09-06T02:32:23.602Z,9.02
2022-09-06T02:35:13.202Z,7.57
2022-09-06T02:37:59.003Z,8.52
2022-09-06T02:40:45.534Z,8.27
2022-09-06T02:43:31.412Z,8.10
2022-09-06T02:46:17.051Z,8.13
2022-09-06T02:49:03.692Z,8.02
2022-09-06T02:51:49.245Z,8.10
2022-09-06T02:54:34.626Z,7.85
2022-09-06T02:57:20.107Z,8.80
2022-09-06T03:00:06.072Z,8.88
2022-09-06T03:02:52.091Z,8.60
2022-09-06T03:05:37.905Z,8.02
2022-09-06T03:08:26.387Z,8.77
2022-09-06T03:11:12.154Z,9.02
2022-09-06T03:13:57.898Z,8.55
2022-09-06T03:16:43.990Z,8.75
2022-09-06T03:19:29.645Z,8.40
2022-09-06T03:22:15.345Z,8.25
2022-09-06T03:25:01.197Z,8.50
2022-09-06T03:27:47.108Z,8.15
2022-09-06T03:30:32.615Z,8.48
2022-09-06T03:33:18.506Z,8.20
2022-09-06T03:36:04.562Z,8.27
2022-09-06T03:38:51.125Z,9.13
2022-09-06T03:41:36.276Z,8.57
2022-09-06T03:44:22.186Z,8.57
2022-09-06T03:47:07.604Z,8.30
2022-09-06T03:49:53.645Z,8.30
2022-09-06T03:52:39.208Z,8.73
2022-09-06T03:55:25.044Z,8.48
2022-09-06T03:58:10.594Z,9.27
2022-09-06T04:01:08.494Z,8.73
2022-09-06T04:03:54.516Z,8.82
2022-09-06T04:06:39.888Z,9.00
2022-09-06T04:09:25.844Z,9.57
2022-09-06T04:12:11.288Z,8.88
2022-09-06T04:14:56.573Z,9.48
2022-09-06T04:17:46.694Z,8.77
2022-09-06T04:20:32.287Z,8.88
2022-09-06T04:23:18.305Z,9.57
2022-09-06T04:26:04.479Z,9.63
2022-09-06T04:28:49.679Z,9.00
2022-09-06T04:31:35.046Z,9.57
2022-09-06T04:34:20.527Z,9.50
2022-09-06T04:37:05.935Z,9.20
2022-09-06T04:39:51.528Z,9.00
2022-09-06T04:42:37.279Z,9.50
2022-09-06T04:45:23.110Z,9.75
2022-09-06T04:48:09.030Z,8.93
2022-09-06T04:50:54.854Z,9.13
2022-09-06T04:53:40.395Z,9.23
2022-09-06T04:56:26.712Z,9.30
2022-09-06T04:59:12.529Z,9.65
2022-09-06T05:01:58.113Z,9.48
2022-09-06T05:04:43.367Z,9.10
2022-09-06T05:07:28.911Z,8.65
2022-09-06T05:10:14.734Z,9.98
2022-09-06T05:13:00.451Z,9.40
2022-09-06T05:15:45.951Z,9.30
2022-09-06T05:18:31.683Z,9.30
2022-09-06T05:21:17.096Z,9.40
2022-09-06T05:24:02.634Z,8.68
2022-09-06T05:26:48.263Z,8.75
2022-09-06T05:29:34.532Z,8.50
2022-09-06T05:32:19.544Z,8.88
2022-09-06T05:35:05.615Z,8.55
2022-09-06T05:37:51.211Z,8.85
2022-09-06T05:40:37.381Z,8.23
2022-09-06T05:43:23.366Z,8.73
2022-09-06T05:46:09.640Z,8.23
2022-09-06T05:48:58.019Z,8.40
2022-09-06T05:51:43.181Z,9.45
2022-09-06T05:54:29.139Z,8.57
2022-09-06T05:57:15.133Z,9.13
2022-09-06T06:00:00.403Z,8.52
2022-09-06T06:02:49.912Z,8.43
2022-09-06T06:05:35.895Z,9.20
2022-09-06T06:08:21.824Z,8.40
2022-09-06T06:11:07.309Z,8.30
2022-09-06T06:13:53.034Z,8.35
2022-09-06T06:16:38.624Z,9.07
2022-09-06T06:19:24.049Z,8.10
2022-09-06T06:22:10.052Z,8.30
2022-09-06T06:24:55.425Z,8.05
2022-09-06T06:27:41.465Z,8.18
2022-09-06T06:30:27.264Z,7.97
2022-09-06T06:33:12.575Z,7.97
2022-09-06T06:36:07.089Z,8.43
2022-09-06T06:38:55.935Z,8.32
2022-09-06T06:41:41.735Z,7.93
2022-09-06T06:44:45.036Z,8.27
2022-09-06T06:47:31.077Z,8.48
2022-09-06T06:50:17.191Z,8.18
2022-09-06T06:53:03.285Z,8.13
2022-09-06T06:55:49.137Z,8.23
2022-09-06T06:58:35.151Z,7.97
2022-09-06T07:01:22.145Z,8.02
2022-09-06T07:04:10.395Z,7.70
2022-09-06T07:13:09.149Z,7.85
2022-09-06T07:16:07.315Z,7.47
2022-09-06T07:18:54.397Z,7.70
2022-09-06T07:21:40.499Z,7.32
2022-09-06T07:24:26.569Z,7.60
2022-09-06T07:30:19.507Z,7.25
2022-09-06T07:33:08.010Z,6.90
2022-09-06T07:35:59.216Z,6.90
2022-09-06T07:38:48.611Z,7.45
2022-09-06T07:41:34.297Z,7.05
2022-09-06T07:44:20.349Z,6.72
2022-09-06T07:53:27.747Z,6.70
2022-09-06T07:56:17.715Z,6.45
2022-09-06T07:59:02.998Z,6.32
2022-09-06T08:01:49.436Z,6.50
2022-09-06T08:04:34.770Z,6.60
2022-09-06T08:10:27.957Z,6.85
2022-09-06T08:13:14.043Z,6.75
2022-09-06T08:16:00.390Z,7.05
2022-09-06T08:18:45.611Z,7.22
2022-09-06T08:21:32.609Z,6.82
2022-09-06T08:24:18.200Z,7.00
2022-09-06T08:27:03.731Z,6.43
2022-09-06T08:29:49.123Z,6.95
2022-09-06T08:32:38.444Z,6.97
2022-09-06T08:35:23.505Z,6.25
2022-09-06T08:38:09.033Z,6.20
2022-09-06T08:40:55.476Z,6.35
2022-09-06T08:47:23.444Z,6.70
2022-09-06T08:50:10.240Z,5.70
2022-09-06T08:53:16.730Z,5.75
2022-09-06T08:56:17.373Z,6.05
2022-09-06T08:59:14.208Z,5.72
2022-09-06T09:02:09.570Z,6.18
2022-09-06T09:05:04.331Z,6.20
2022-09-06T09:08:01.888Z,5.68
2022-09-06T09:10:54.621Z,6.10
2022-09-06T09:13:54.671Z,6.45
2022-09-06T09:16:41.125Z,6.03
2022-09-06T09:19:26.240Z,5.72
2022-09-06T09:22:17.689Z,5.85
2022-09-06T09:25:04.005Z,5.90
2022-09-06T09:27:57.501Z,5.32
2022-09-06T09:30:51.808Z,5.40
2022-09-06T09:33:41.189Z,4.97
2022-09-06T09:36:26.720Z,5.68
2022-09-06T09:39:12.618Z,5.13
2022-09-06T09:41:58.119Z,5.70
2022-09-06T09:44:44.768Z,6.00
2022-09-06T09:47:32.541Z,6.00
2022-09-06T09:50:31.472Z,5.97
2022-09-06T09:53:20.936Z,5.57
2022-09-06T09:56:06.340Z,5.88
2022-09-06T09:58:54.793Z,5.45
2022-09-06T10:01:40.366Z,5.13
2022-09-06T10:04:44.163Z,5.50
2022-09-06T10:07:32.845Z,5.82
2022-09-06T10:10:47.569Z,5.80
2022-09-06T10:13:34.296Z,5.70
2022-09-06T10:16:44.816Z,5.50
2022-09-06T10:19:42.012Z,5.55
2022-09-06T10:23:09.396Z,5.75
2022-09-06T10:26:22.874Z,5.35
2022-09-06T10:29:11.887Z,5.15
2022-09-06T10:32:03.307Z,6.30
2022-09-06T10:34:57.168Z,6.65
2022-09-06T10:37:45.997Z,7.80
2022-09-06T10:40:41.536Z,6.22
2022-09-06T10:43:47.066Z,5.35
2022-09-06T10:46:34.803Z,6.03
2022-09-06T10:49:20.313Z,6.03
2022-09-06T10:52:10.466Z,5.97
2022-09-06T10:55:03.660Z,5.20
2022-09-06T11:01:01.785Z,5.95
2022-09-06T11:03:54.589Z,6.53
2022-09-06T11:06:48.073Z,6.15
2022-09-06T11:09:56.266Z,6.63
2022-09-06T11:13:06.186Z,5.80
2022-09-06T11:15:57.780Z,5.70
2022-09-06T11:19:07.980Z,6.40
2022-09-06T11:22:20.141Z,6.03
2022-09-06T11:25:44.458Z,6.03
2022-09-06T11:28:36.813Z,6.18
2022-09-06T11:34:36.020Z,5.57
2022-09-06T11:37:34.816Z,7.35
2022-09-06T11:43:18.106Z,6.10
2022-09-06T11:46:03.782Z,6.10
2022-09-06T11:49:27.201Z,5.68
2022-09-06T11:52:49.513Z,5.60
2022-09-06T11:55:43.367Z,5.80
2022-09-06T11:58:51.372Z,5.93
2022-09-06T12:01:38.871Z,5.63
2022-09-06T12:04:24.967Z,6.07
2022-09-06T12:07:13.032Z,5.97
2022-09-06T12:10:02.095Z,5.90
2022-09-06T12:12:52.393Z,6.28
2022-09-06T12:15:54.404Z,5.85
2022-09-06T12:18:49.073Z,5.80
2022-09-06T12:21:43.824Z,5.70
2022-09-06T12:24:35.281Z,5.85
2022-09-06T12:27:22.445Z,5.85
2022-09-06T12:30:13.677Z,5.82
2022-09-06T12:33:00.373Z,5.70
2022-09-06T12:38:38.701Z,5.40
2022-09-06T12:41:26.814Z,5.70
2022-09-06T12:44:15.129Z,5.43
2022-09-06T12:47:10.725Z,5.70
2022-09-06T12:50:17.742Z,5.55
2022-09-06T12:53:19.489Z,5.82
2022-09-06T12:56:12.407Z,5.30
2022-09-06T12:59:14.037Z,5.63
2022-09-06T13:02:02.317Z,5.57
2022-09-06T13:04:52.052Z,5.40
2022-09-06T13:07:43.365Z,5.50
2022-09-06T13:10:29.323Z,4.85
2022-09-06T13:13:22.089Z,5.20
2022-09-06T13:16:07.740Z,5.43
2022-09-06T13:18:54.181Z,5.00
2022-09-06T13:21:41.983Z,4.78
2022-09-06T13:24:36.772Z,4.90
2022-09-06T13:27:24.510Z,4.93
2022-09-06T13:30:10.780Z,4.95
2022-09-06T13:32:56.299Z,5.40
2022-09-06T13:35:41.719Z,4.95
2022-09-06T13:38:35.087Z,4.53
2022-09-06T13:41:26.955Z,5.05
2022-09-06T13:44:15.181Z,5.10
2022-09-06T13:47:00.818Z,5.50
2022-09-06T13:49:47.246Z,5.10
2022-09-06T13:52:33.098Z,4.78
2022-09-06T13:55:21.659Z,4.78
2022-09-06T13:58:07.034Z,5.18
2022-09-06T14:00:53.708Z,4.65
2022-09-06T14:03:41.932Z,4.90
2022-09-06T14:06:27.925Z,5.63
2022-09-06T14:09:13.635Z,4.60
2022-09-06T14:11:59.579Z,4.38
2022-09-06T14:14:44.807Z,5.05
2022-09-06T14:17:30.243Z,6.90
2022-09-06T14:20:15.870Z,5.47
2022-09-06T14:23:01.267Z,5.30
2022-09-06T14:25:46.738Z,6.07
2022-09-06T14:28:33.846Z,4.95
2022-09-06T14:31:21.581Z,5.15
2022-09-06T14:34:07.195Z,4.97
2022-09-06T14:36:52.769Z,4.82
2022-09-06T14:39:38.290Z,4.80
2022-09-06T14:42:24.645Z,4.68
2022-09-06T14:45:09.832Z,5.53
2022-09-06T14:47:56.181Z,4.40
2022-09-06T14:50:41.303Z,4.55
2022-09-06T14:53:39.931Z,5.10
2022-09-06T14:56:26.988Z,5.70
2022-09-06T14:59:12.554Z,4.78
2022-09-06T15:01:58.003Z,4.30
2022-09-06T15:04:43.840Z,4.95
2022-09-06T15:07:29.937Z,4.80
2022-09-06T15:10:15.181Z,4.85
2022-09-06T15:13:01.055Z,5.03
2022-09-06T15:15:46.511Z,5.93
2022-09-06T15:18:33.128Z,4.97
2022-09-06T15:21:18.351Z,5.40
2022-09-06T15:24:07.318Z,5.20
2022-09-06T15:26:55.288Z,4.97
2022-09-06T15:29:41.094Z,4.95
2022-09-06T15:32:26.697Z,4.80
2022-09-06T15:35:12.121Z,5.70
2022-09-06T15:37:57.600Z,5.05
2022-09-06T15:40:43.014Z,5.18
2022-09-06T15:43:28.459Z,4.60
2022-09-06T15:46:15.468Z,5.00
2022-09-06T15:49:04.044Z,4.72
2022-09-06T15:51:49.862Z,4.95
2022-09-06T15:54:53.809Z,4.95
2022-09-06T15:57:39.319Z,4.65
2022-09-06T16:00:24.799Z,5.35
2022-09-06T16:03:10.576Z,5.35
2022-09-06T16:09:19.763Z,4.95
2022-09-06T16:12:05.133Z,5.18
2022-09-06T16:14:50.622Z,4.50
2022-09-06T16:17:36.149Z,4.85
2022-09-06T16:20:23.138Z,4.63
2022-09-06T16:23:08.434Z,5.30
2022-09-06T16:25:54.205Z,5.00
2022-09-06T16:28:40.085Z,4.97
2022-09-06T16:31:25.662Z,4.68
2022-09-06T16:34:12.308Z,4.75
2022-09-06T16:36:57.727Z,5.05
2022-09-06T16:39:43.616Z,4.70
2022-09-06T16:42:29.193Z,4.57
2022-09-06T16:45:14.844Z,4.68
2022-09-06T16:48:00.260Z,4.65
2022-09-06T16:50:45.600Z,4.82
2022-09-06T16:53:31.014Z,5.25
2022-09-06T16:56:18.990Z,4.78
2022-09-06T16:59:07.099Z,5.10
2022-09-06T17:01:55.585Z,4.70
2022-09-06T17:04:41.320Z,5.57
2022-09-06T17:07:26.893Z,5.07
2022-09-06T17:10:12.437Z,5.35
2022-09-06T17:12:57.898Z,4.38
2022-09-06T17:16:10.302Z,4.80
2022-09-06T17:18:55.758Z,5.57
2022-09-06T17:21:41.801Z,4.72
2022-09-06T17:24:27.237Z,4.82
2022-09-06T17:27:12.939Z,5.20
2022-09-06T17:29:58.346Z,4.75
2022-09-06T17:32:43.953Z,5.00
2022-09-06T17:35:29.642Z,5.32
2022-09-06T17:38:16.255Z,4.97
2022-09-06T17:41:02.550Z,4.88
2022-09-06T17:43:48.585Z,5.88
2022-09-06T17:46:33.740Z,5.32
2022-09-06T17:49:19.295Z,5.72
2022-09-06T17:52:04.728Z,6.00
2022-09-06T17:54:50.402Z,5.90
2022-09-06T17:57:35.851Z,5.85
2022-09-06T18:00:21.641Z,5.15
2022-09-06T18:03:08.457Z,5.80
2022-09-06T18:05:54.004Z,5.70
2022-09-06T18:08:41.906Z,5.97
2022-09-06T18:11:29.579Z,5.72
2022-09-06T18:14:18.639Z,6.00
2022-09-06T18:17:04.164Z,5.55
2022-09-06T18:19:49.427Z,5.30
2022-09-06T18:22:34.730Z,6.13
2022-09-06T18:25:20.095Z,5.45
2022-09-06T18:28:05.371Z,5.95
2022-09-06T18:30:51.498Z,5.90
2022-09-06T18:33:37.750Z,5.53
2022-09-06T18:36:22.761Z,5.80
2022-09-06T18:39:08.664Z,6.10
2022-09-06T18:41:59.972Z,5.28
2022-09-06T18:44:45.656Z,5.35
2022-09-06T18:47:31.119Z,5.22
2022-09-06T18:50:17.208Z,6.38
2022-09-06T18:53:02.339Z,5.70
2022-09-06T18:55:51.277Z,5.40
2022-09-06T18:58:36.923Z,5.82
2022-09-06T19:01:22.559Z,5.63
2022-09-06T19:04:09.600Z,6.35
2022-09-06T19:06:55.130Z,5.68
2022-09-06T19:09:41.493Z,6.68
2022-09-06T19:12:27.228Z,6.65
2022-09-06T19:15:12.543Z,6.00
2022-09-06T19:17:58.321Z,5.25
2022-09-06T19:20:44.045Z,5.80
2022-09-06T19:23:29.924Z,5.15
2022-09-06T19:26:18.232Z,6.32
2022-09-06T19:29:08.837Z,5.57
2022-09-06T19:31:54.866Z,5.50
2022-09-06T19:34:40.913Z,5.20
2022-09-06T19:37:27.041Z,6.22
2022-09-06T19:40:13.122Z,5.30
2022-09-06T19:42:58.860Z,5.47
2022-09-06T19:45:44.323Z,5.80
2022-09-06T19:48:31.350Z,6.53
2022-09-06T19:51:18.220Z,6.03
2022-09-06T19:54:04.586Z,6.00
2022-09-06T19:56:50.740Z,5.65
2022-09-06T19:59:36.601Z,5.57
2022-09-06T20:02:22.711Z,5.70
2022-09-06T20:05:08.728Z,5.80
2022-09-06T20:07:54.153Z,6.55
2022-09-06T20:10:40.097Z,7.90
2022-09-06T20:13:26.715Z,5.60
2022-09-06T20:16:13.124Z,6.47
2022-09-06T20:19:00.006Z,6.32
2022-09-06T20:21:45.367Z,6.80
2022-09-06T20:24:30.782Z,5.80
2022-09-06T20:27:16.273Z,7.10
2022-09-06T20:30:01.798Z,5.75
2022-09-06T20:32:47.156Z,6.47
2022-09-06T20:35:32.552Z,6.18
2022-09-06T20:38:17.834Z,6.07
2022-09-06T20:41:06.670Z,6.05
2022-09-06T20:43:58.196Z,6.18
2022-09-06T20:46:43.598Z,5.90
2022-09-06T20:49:28.798Z,6.63
2022-09-06T20:52:14.326Z,6.60
2022-09-06T20:54:59.647Z,5.57
2022-09-06T20:57:47.144Z,5.72
2022-09-06T21:00:33.156Z,6.20
2022-09-06T21:03:18.754Z,6.10
2022-09-06T21:06:05.766Z,5.82
2022-09-06T21:08:52.045Z,5.57
2022-09-06T21:11:38.177Z,5.38
2022-09-06T21:14:24.023Z,5.70
2022-09-06T21:17:09.397Z,5.72
2022-09-06T21:19:54.876Z,6.30
2022-09-06T21:22:40.311Z,5.13
2022-09-06T21:25:25.745Z,5.50
2022-09-06T21:28:11.203Z,5.53
2022-09-06T21:31:08.563Z,5.68
2022-09-06T21:33:59.394Z,5.50
2022-09-06T21:36:44.905Z,6.00
2022-09-06T21:39:30.279Z,5.60
2022-09-06T21:42:15.811Z,5.40
2022-09-06T21:45:01.327Z,5.82
2022-09-06T21:47:46.589Z,7.75
2022-09-06T21:50:33.556Z,5.97
2022-09-06T21:53:19.267Z,5.72
2022-09-06T21:56:05.429Z,5.65
2022-09-06T21:58:55.722Z,5.35
2022-09-06T22:01:44.011Z,5.07
2022-09-06T22:04:31.055Z,5.30
2022-09-06T22:07:16.252Z,5.30
2022-09-06T22:10:02.059Z,5.65
2022-09-06T22:12:47.763Z,5.05
2022-09-06T22:15:36.405Z,4.50
2022-09-06T22:18:21.631Z,4.85
2022-09-06T22:21:15.245Z,4.40
2022-09-06T22:24:03.679Z,4.22
2022-09-06T22:26:49.029Z,4.30
2022-09-06T22:29:34.726Z,4.18
2022-09-06T22:32:21.154Z,4.45
2022-09-06T22:35:06.991Z,4.03
2022-09-06T22:37:52.725Z,4.57
2022-09-06T22:40:38.070Z,4.13
2022-09-06T22:43:24.352Z,4.10
2022-09-06T22:46:11.110Z,5.00
2022-09-06T22:48:56.979Z,4.13
2022-09-06T22:51:42.668Z,4.25
2022-09-06T22:54:28.908Z,4.07
2022-09-06T22:57:14.082Z,3.90
2022-09-06T22:59:59.986Z,4.20
2022-09-06T23:02:45.414Z,4.10
2022-09-06T23:05:31.808Z,4.20
2022-09-06T23:08:17.472Z,3.65
2022-09-06T23:11:08.518Z,4.03
2022-09-06T23:13:58.470Z,4.05
2022-09-06T23:16:44.158Z,4.10
2022-09-06T23:19:29.557Z,4.47
2022-09-06T23:22:14.945Z,4.35
2022-09-06T23:25:00.768Z,4.30
2022-09-06T23:27:47.474Z,3.85
2022-09-06T23:30:36.451Z,4.28
2022-09-06T23:33:21.814Z,4.13
2022-09-06T23:36:10.655Z,4.10
2022-09-06T23:38:56.828Z,3.53
2022-09-06T23:41:42.131Z,3.80
2022-09-06T23:44:27.778Z,3.55
2022-09-06T23:47:14.356Z,4.35
2022-09-06T23:50:00.179Z,3.90
2022-09-06T23:52:45.605Z,3.90
2022-09-06T23:55:31.175Z,3.50
2022-09-06T23:58:16.708Z,3.70
